^^
Station Historical Data
Daily Summary for June 13, 2018 Units:  Metric    English   Both
« Previous Day
Next Day »
Daily Weekly Monthly Yearly Custom
  High: Low: Average:
Temperature: -17.8 °C 15.5 °C 20.6 °C
Dew Point: -17.8 °C 15.3 °C 19.2 °C
Humidity: Humidity% 73% 92%
Wind Speed: 0km/h 0km/h 0.8km/h
Wind Gust: 0km/h - -
Wind- - SSW
Pressure: 0 hPa 1027.3 hPa -
Precipitation: 3.05 mm    
Historical Graphs
 
 
Tabular Data for June 13, 2018
Time Temperature Dew Point Pressure Wind Wind Speed Wind Gust Humidity Rainfall Rate (Hourly)
-17.8 °C -17.8 °C 0 hPa Calm     Humidity% 0 mm
00:02 17.8 °C 17.5 °C 1031 hPa WNW 3.2 km/h 3.2 km/h 98% 0 mm
00:07 17.8 °C 17.5 °C 1031 hPa WNW 1.4 km/h 3.2 km/h 98% 0 mm
00:12 17.8 °C 17.5 °C 1031 hPa Calm   1.6 km/h 98% 0 mm
00:17 17.8 °C 17.5 °C 1031.4 hPa WNW 1.4 km/h 1.6 km/h 98% 0 mm
00:22 17.7 °C 17.4 °C 1031.4 hPa Calm     98% 0 mm
00:27 17.7 °C 17.4 °C 1031.4 hPa Calm     98% 0 mm
00:37 17.5 °C 17.2 °C 1031.4 hPa NE 1.4 km/h 3.2 km/h 98% 0 mm
00:42 17.6 °C 17.3 °C 1031.4 hPa Calm     98% 0 mm
00:47 17.4 °C 17.1 °C 1031.4 hPa Calm     98% 0 mm
00:57 17.3 °C 17 °C 1031.4 hPa Calm     98% 0 mm
01:08 17.1 °C 16.8 °C 1031.4 hPa Calm     98% 0 mm
01:13 17 °C 16.7 °C 1031.4 hPa Calm     98% 0 mm
01:18 17 °C 16.8 °C 1031.4 hPa Calm     99% 0 mm
01:23 16.9 °C 16.7 °C 1031.4 hPa Calm     99% 0 mm
01:28 16.8 °C 16.6 °C 1031.4 hPa Calm     99% 0 mm
01:33 16.8 °C 16.6 °C 1031.4 hPa Calm     99% 0 mm
01:38 16.7 °C 16.5 °C 1031.4 hPa Calm     99% 0 mm
01:43 16.7 °C 16.5 °C 1031.4 hPa Calm     99% 0 mm
01:48 16.7 °C 16.5 °C 1031.4 hPa Calm     99% 0 mm
01:53 16.6 °C 16.4 °C 1031.4 hPa Calm     99% 0 mm
01:58 16.6 °C 16.4 °C 1031.4 hPa Calm     99% 0 mm
02:03 16.6 °C 16.4 °C 1031.4 hPa Calm     99% 0 mm
02:08 16.6 °C 16.4 °C 1031.4 hPa WNW 1.4 km/h 3.2 km/h 99% 0 mm
02:13 16.5 °C 16.3 °C 1031.4 hPa Calm     99% 0 mm
02:18 16.5 °C 16.3 °C 1031.4 hPa Calm     99% 0 mm
02:28 16.4 °C 16.2 °C 1031 hPa Calm     99% 0 mm
02:43 16.3 °C 16.1 °C 1031 hPa Calm     99% 0 mm
02:48 16.3 °C 16.1 °C 1031 hPa Calm     99% 0 mm
02:59 16.2 °C 16 °C 1030.7 hPa Calm     99% 0 mm
03:09 16.2 °C 16 °C 1031 hPa Calm   1.6 km/h 99% 0 mm
03:14 16.2 °C 16 °C 1031 hPa Calm     99% 0 mm
03:19 16.1 °C 15.9 °C 1031 hPa Calm     99% 0 mm
03:24 16.2 °C 16 °C 1031 hPa Calm     99% 0 mm
03:29 16.3 °C 16.1 °C 1030.7 hPa Calm     99% 0 mm
03:34 16.3 °C 16.1 °C 1030.7 hPa Calm   1.6 km/h 99% 0 mm
03:39 16.3 °C 16.1 °C 1030.7 hPa Calm     99% 0 mm
03:44 16.4 °C 16.2 °C 1030.7 hPa Calm     99% 0 mm
03:49 16.4 °C 16.2 °C 1030.7 hPa Calm     99% 0 mm
03:54 16.4 °C 16.2 °C 1030.7 hPa Calm     99% 0 mm
03:59 16.5 °C 16.3 °C 1030.7 hPa Calm     99% 0 mm
04:04 16.6 °C 16.4 °C 1030.4 hPa Calm     99% 0 mm
04:09 16.6 °C 16.4 °C 1030.7 hPa Calm   1.6 km/h 99% 0 mm
04:19 16.5 °C 16.3 °C 1030.7 hPa Calm   1.6 km/h 99% 0 mm
04:24 16.5 °C 16.3 °C 1030.7 hPa Calm     99% 0 mm
04:30 16.4 °C 16.2 °C 1030.4 hPa WNW 1.4 km/h 1.6 km/h 99% 0 mm
04:35 16.3 °C 16.1 °C 1030.7 hPa Calm     99% 0 mm
04:40 16.3 °C 16.1 °C 1030.4 hPa Calm     99% 0 mm
04:50 16.2 °C 16 °C 1030.7 hPa Calm     99% 0 mm
04:55 16.1 °C 15.9 °C 1030.7 hPa WNW 1.4 km/h 1.6 km/h 99% 0 mm
05:00 16 °C 15.8 °C 1030.7 hPa Calm     99% 0 mm
05:15 15.8 °C 15.6 °C 1030.7 hPa Calm     99% 0 mm
05:25 15.7 °C 15.5 °C 1031 hPa Calm     99% 0 mm
05:30 15.7 °C 15.5 °C 1031 hPa Calm     99% 0 mm
05:35 15.7 °C 15.5 °C 1030.7 hPa Calm   1.6 km/h 99% 0 mm
05:55 15.6 °C 15.4 °C 1031 hPa Calm     99% 0 mm
06:00 15.6 °C 15.4 °C 1031 hPa Calm     99% 0 mm
06:05 15.6 °C 15.4 °C 1031 hPa Calm   1.6 km/h 99% 0 mm
06:10 15.5 °C 15.3 °C 1031 hPa Calm     99% 0 mm
06:15 15.5 °C 15.3 °C 1031 hPa Calm     99% 0 mm
06:20 15.5 °C 15.3 °C 1031 hPa Calm     99% 0 mm
06:51 15.7 °C 15.5 °C 1031.4 hPa Calm     99% 0 mm
07:01 15.7 °C 15.5 °C 1031.4 hPa West 1.4 km/h 1.6 km/h 99% 0 mm
07:11 15.8 °C 15.6 °C 1031.4 hPa WNW 1.4 km/h 1.6 km/h 99% 0 mm
07:21 15.8 °C 15.6 °C 1031.4 hPa Calm     99% 0 mm
07:31 16.1 °C 15.9 °C 1031.4 hPa West 1.4 km/h 1.6 km/h 99% 0 mm
07:56 16.6 °C 16.4 °C 1031.4 hPa Calm   1.6 km/h 99% 0 mm
08:01 16.6 °C 16.4 °C 1031.4 hPa Calm     99% 0 mm
08:06 17.4 °C 17.2 °C 1031.4 hPa Calm     99% 0 mm
08:11 17.8 °C 17.6 °C 1031.4 hPa Calm   1.6 km/h 99% 0 mm
08:16 18.3 °C 18 °C 1031.4 hPa Calm     98% 0 mm
08:21 18.7 °C 18.2 °C 1031.4 hPa Calm   3.2 km/h 97% 0 mm
08:27 18.9 °C 17.9 °C 1031.4 hPa Calm   1.6 km/h 94% 0 mm
08:32 19.4 °C 18.7 °C 1031.4 hPa Calm     96% 0 mm
08:37 19.2 °C 18.4 °C 1031.7 hPa Calm   1.6 km/h 95% 0 mm
08:42 18.7 °C 17.7 °C 1031.4 hPa ESE 1.4 km/h 3.2 km/h 94% 0 mm
08:52 18.2 °C 17.6 °C 1031.4 hPa ESE 1.4 km/h 1.6 km/h 96% 0 mm
08:57 18.2 °C 17.6 °C 1031.4 hPa Calm     96% 0 mm
09:02 18.5 °C 17.7 °C 1031.7 hPa Calm   1.6 km/h 95% 0 mm
09:07 19.1 °C 18.3 °C 1031.4 hPa Calm   1.6 km/h 95% 0 mm
09:12 19.9 °C 19.1 °C 1031.7 hPa Calm     95% 0 mm
09:17 20.6 °C 19.4 °C 1031.7 hPa Calm   1.6 km/h 93% 0 mm
09:22 20.5 °C 19 °C 1031.7 hPa East 1.4 km/h 1.6 km/h 91% 0 mm
09:27 20.2 °C 18.7 °C 1031.7 hPa Calm   1.6 km/h 91% 0 mm
09:32 20.1 °C 18.8 °C 1031.7 hPa Calm     92% 0 mm
09:37 20.2 °C 18.7 °C 1031.4 hPa ENE 1.4 km/h 1.6 km/h 91% 0 mm
09:42 20.3 °C 19 °C 1031.4 hPa Calm     92% 0 mm
09:47 20.6 °C 19.1 °C 1031.4 hPa East 1.4 km/h 1.6 km/h 91% 0 mm
09:52 20.8 °C 19.3 °C 1031.4 hPa Calm     91% 0 mm
09:57 21.2 °C 19.7 °C 1031.4 hPa Calm   1.6 km/h 91% 0 mm
10:02 21.8 °C 19.9 °C 1031.4 hPa ESE 1.4 km/h 3.2 km/h 89% 0 mm
10:07 21.8 °C 19.7 °C 1031.4 hPa Calm   3.2 km/h 88% 0 mm
10:12 22 °C 20.1 °C 1031.4 hPa Calm   1.6 km/h 89% 0 mm
10:17 22.2 °C 20.1 °C 1031 hPa Calm   1.6 km/h 88% 0 mm
10:22 22.4 °C 19.9 °C 1031 hPa Calm   1.6 km/h 86% 0 mm
10:27 22.3 °C 20 °C 1031 hPa Calm     87% 0 mm
10:32 22.6 °C 20.7 °C 1031 hPa Calm     89% 0 mm
10:37 22.6 °C 20.1 °C 1031 hPa SE 3.2 km/h 3.2 km/h 86% 0 mm
10:42 22.7 °C 20.4 °C 1031 hPa SE 1.4 km/h 1.6 km/h 87% 0 mm
10:47 22.8 °C 20.3 °C 1031 hPa Calm   3.2 km/h 86% 0 mm
10:52 23.2 °C 20.7 °C 1031 hPa Calm   4.8 km/h 86% 0 mm
10:57 23.4 °C 20.5 °C 1031 hPa Calm   1.6 km/h 84% 0 mm
11:02 23.4 °C 20.3 °C 1031 hPa Calm   3.2 km/h 83% 0 mm
11:07 23.4 °C 20.5 °C 1031 hPa Calm   1.6 km/h 84% 0 mm
11:17 23.7 °C 20.6 °C 1031 hPa West 1.4 km/h 1.6 km/h 83% 0 mm
11:22 23.8 °C 20.9 °C 1031 hPa West 1.4 km/h 1.6 km/h 84% 0 mm
11:27 23.7 °C 20.6 °C 1031 hPa WSW 1.4 km/h 4.8 km/h 83% 0 mm
11:32 23.4 °C 20.5 °C 1031 hPa Calm   1.6 km/h 84% 0 mm
11:37 23.3 °C 20.4 °C 1031 hPa Calm   1.6 km/h 84% 0 mm
11:42 23.2 °C 20.2 °C 1031 hPa WNW 6.4 km/h 6.4 km/h 83% 0 mm
11:47 22.9 °C 20.2 °C 1031 hPa West 1.4 km/h 4.8 km/h 85% 0 mm
11:52 22.8 °C 20 °C 1031 hPa Calm   8 km/h 84% 0 mm
11:57 22.7 °C 20.4 °C 1031 hPa West 3.2 km/h 6.4 km/h 87% 0 mm
12:02 22.7 °C 20.2 °C 1031 hPa Calm   4.8 km/h 86% 0 mm
12:07 22.7 °C 20.4 °C 1031 hPa West 6.4 km/h 6.4 km/h 87% 0 mm
12:12 22.7 °C 20.4 °C 1031.4 hPa ESE 3.2 km/h 3.2 km/h 87% 0 mm
12:22 22.8 °C 20.3 °C 1031 hPa East 1.4 km/h 9.7 km/h 86% 0 mm
12:27 22.8 °C 20.3 °C 1031.4 hPa Calm   6.4 km/h 86% 0 mm
12:32 22.7 °C 20.6 °C 1031 hPa ENE 4.7 km/h 4.8 km/h 88% 0 mm
12:37 22.6 °C 20.5 °C 1031.4 hPa ENE 1.4 km/h 4.8 km/h 88% 0 mm
12:47 22.3 °C 20.6 °C 1031 hPa Calm   3.2 km/h 90% 0 mm
12:57 22.3 °C 21.1 °C 1031 hPa East 1.4 km/h 1.6 km/h 93% 0.25 mm
13:02 22.4 °C 20.9 °C 1031 hPa Calm   3.2 km/h 91% 0.25 mm
13:22 22.8 °C 21.1 °C 1031 hPa Calm     90% 0.25 mm
13:27 22.9 °C 21.2 °C 1030.7 hPa ESE 4.7 km/h 4.8 km/h 90% 0.25 mm
13:42 23.5 °C 21 °C 1030.4 hPa Calm   3.2 km/h 86% 0.25 mm
13:47 23.7 °C 21 °C 1030.4 hPa ENE 7.9 km/h 8 km/h 85% 0.25 mm
13:58 23.9 °C 21 °C 1030 hPa Calm   6.4 km/h 84% 0 mm
14:03 24.3 °C 21.2 °C 1030 hPa Calm   6.4 km/h 83% 0 mm
14:13 24.9 °C 21.2 °C 1030 hPa Calm   6.4 km/h 80% 0 mm
14:18 24.9 °C 21.2 °C 1030 hPa WSW 1.4 km/h 4.8 km/h 80% 0 mm
14:28 25.3 °C 21 °C 1029.7 hPa WNW 1.4 km/h 8 km/h 77% 0 mm
14:38 25.4 °C 21.3 °C 1029.7 hPa SSE 1.4 km/h 1.6 km/h 78% 0 mm
14:43 25.8 °C 22.1 °C 1029.3 hPa ESE 3.2 km/h 3.2 km/h 80% 0 mm
14:48 26.1 °C 21.3 °C 1029.3 hPa ESE 4.7 km/h 6.4 km/h 75% 0 mm
14:53 26.5 °C 21.3 °C 1029.3 hPa East 6.4 km/h 8 km/h 73% 0 mm
14:58 26.4 °C 21.8 °C 1029 hPa ESE 3.2 km/h 3.2 km/h 76% 0 mm
15:03 26.2 °C 21.2 °C 1029 hPa ENE 3.2 km/h 4.8 km/h 74% 0 mm
15:08 25.9 °C 21.1 °C 1029 hPa West 4.7 km/h 6.4 km/h 75% 0 mm
15:13 25.2 °C 21.1 °C 1029 hPa WSW 1.4 km/h 3.2 km/h 78% 0 mm
15:18 24.4 °C 20.9 °C 1029.3 hPa SW 4.7 km/h 14.5 km/h 81% 0 mm
15:23 23.7 °C 21.4 °C 1029.3 hPa WSW 1.4 km/h 9.7 km/h 87% 1.78 mm
15:28 22.7 °C 21.2 °C 1029.3 hPa ENE 1.4 km/h 3.2 km/h 91% 2.29 mm
15:33 22.3 °C 21.1 °C 1029.3 hPa East 3.2 km/h 6.4 km/h 93% 2.29 mm
15:38 22.2 °C 21.4 °C 1029.3 hPa Calm     95% 2.29 mm
15:43 22.4 °C 21.6 °C 1029.3 hPa Calm   1.6 km/h 95% 2.29 mm
15:48 22.3 °C 21.5 °C 1029.3 hPa Calm     95% 2.29 mm
15:53 22.4 °C 21.7 °C 1029 hPa Calm   3.2 km/h 96% 2.54 mm
15:58 22.8 °C 22.1 °C 1029 hPa Calm   1.6 km/h 96% 2.79 mm
16:03 22.9 °C 22.2 °C 1029 hPa ENE 3.2 km/h 3.2 km/h 96% 2.79 mm
16:13 23.3 °C 22.5 °C 1029 hPa Calm   1.6 km/h 95% 2.79 mm
16:18 23.9 °C 22.9 °C 1029 hPa WNW 4.7 km/h 4.8 km/h 94% 2.79 mm
16:23 24.1 °C 22.7 °C 1029 hPa ENE 7.9 km/h 9.7 km/h 92% 1.02 mm
16:28 24.1 °C 22.2 °C 1028.7 hPa West 4.7 km/h 4.8 km/h 89% 0.51 mm
16:33 23.9 °C 22 °C 1028.7 hPa SE 3.2 km/h 3.2 km/h 89% 0.51 mm
16:38 24.1 °C 21.6 °C 1028.7 hPa ESE 1.4 km/h 4.8 km/h 86% 0.51 mm
16:48 24.8 °C 22.7 °C 1028.3 hPa Calm   3.2 km/h 88% 0.51 mm
16:53 25 °C 22.1 °C 1028.3 hPa SE 1.4 km/h 3.2 km/h 84% 0.25 mm
16:58 25.4 °C 22.5 °C 1028.3 hPa Calm   1.6 km/h 84% 0 mm
17:03 25.6 °C 22.9 °C 1028.3 hPa WSW 1.4 km/h 1.6 km/h 85% 0 mm
17:08 25.3 °C 22.8 °C 1028.3 hPa Calm   1.6 km/h 86% 0 mm
17:13 25.4 °C 22.1 °C 1028.3 hPa West 1.4 km/h 1.6 km/h 82% 0 mm
17:18 25.4 °C 22.1 °C 1028 hPa West 3.2 km/h 3.2 km/h 82% 0 mm
17:23 25.2 °C 22.3 °C 1028.3 hPa West 1.4 km/h 3.2 km/h 84% 0 mm
17:28 25.3 °C 22.2 °C 1028.3 hPa West 3.2 km/h 4.8 km/h 83% 0 mm
17:33 25.8 °C 22.5 °C 1028.3 hPa Calm   3.2 km/h 82% 0 mm
17:38 25.9 °C 22.6 °C 1028 hPa SSE 1.4 km/h 1.6 km/h 82% 0 mm
17:43 26.3 °C 23 °C 1028 hPa Calm   1.6 km/h 82% 0 mm
17:48 26.7 °C 22.5 °C 1028 hPa West 3.2 km/h 3.2 km/h 78% 0 mm
17:53 26.3 °C 21.9 °C 1028 hPa West 3.2 km/h 6.4 km/h 77% 0 mm
18:03 26.4 °C 22.3 °C 1027.7 hPa Calm   3.2 km/h 78% 0 mm
18:08 26.4 °C 22.3 °C 1027.7 hPa WSW 1.4 km/h 3.2 km/h 78% 0 mm
18:13 26.5 °C 23 °C 1027.7 hPa Calm   1.6 km/h 81% 0 mm
18:23 26.7 °C 23.4 °C 1027.7 hPa Calm     82% 0 mm
18:33 26.6 °C 23.1 °C 1027.7 hPa Calm   1.6 km/h 81% 0 mm
18:43 26.7 °C 21.5 °C 1027.7 hPa East 1.4 km/h 4.8 km/h 73% 0 mm
18:48 26.5 °C 23 °C 1027.7 hPa Calm   1.6 km/h 81% 0 mm
19:03 26 °C 22.7 °C 1027.3 hPa WNW 1.4 km/h 1.6 km/h 82% 0 mm
19:08 25.8 °C 22.3 °C 1027.7 hPa WNW 1.4 km/h 1.6 km/h 81% 0 mm
19:18 25.4 °C 22.5 °C 1027.7 hPa WNW 1.4 km/h 3.2 km/h 84% 0 mm
19:23 25.5 °C 22.2 °C 1028 hPa WNW 1.4 km/h 1.6 km/h 82% 0 mm
19:28 25.3 °C 22.2 °C 1028 hPa WNW 1.4 km/h 1.6 km/h 83% 0 mm
19:33 24.9 °C 22.2 °C 1028 hPa West 1.4 km/h 1.6 km/h 85% 0 mm
19:38 24.1 °C 21.8 °C 1028 hPa Calm   1.6 km/h 87% 0 mm
19:43 24.3 °C 22 °C 1028 hPa Calm   1.6 km/h 87% 0 mm
20:04 22.8 °C 21.3 °C 1028 hPa Calm     91% 0 mm
20:29 22.2 °C 21.2 °C 1028.3 hPa Calm     94% 0 mm
20:34 22.1 °C 21.3 °C 1028.3 hPa Calm     95% 0 mm
20:39 22 °C 21.2 °C 1028.3 hPa Calm     95% 0 mm
20:54 21.7 °C 21 °C 1028.7 hPa Calm     96% 0 mm
20:59 21.7 °C 21 °C 1028.7 hPa Calm     96% 0 mm
21:04 21.6 °C 20.9 °C 1028.7 hPa Calm   1.6 km/h 96% 0 mm
21:09 21.5 °C 21 °C 1028.7 hPa Calm     97% 0 mm
21:14 21.4 °C 20.9 °C 1028.7 hPa Calm     97% 0 mm
21:19 21.3 °C 20.8 °C 1028.7 hPa Calm     97% 0 mm
21:29 21.2 °C 20.7 °C 1028.7 hPa Calm     97% 0 mm
21:34 21.2 °C 20.7 °C 1029 hPa Calm     97% 0 mm
21:39 21.1 °C 20.6 °C 1028.7 hPa Calm   1.6 km/h 97% 0 mm
21:44 21.1 °C 20.6 °C 1028.7 hPa Calm     97% 0 mm
21:49 21 °C 20.5 °C 1029 hPa Calm     97% 0 mm
21:54 20.9 °C 20.4 °C 1029 hPa Calm     97% 0 mm
22:04 20.8 °C 20.5 °C 1029 hPa Calm     98% 0 mm
22:09 20.7 °C 20.4 °C 1029 hPa Calm     98% 0 mm
22:14 20.7 °C 20.4 °C 1029 hPa Calm     98% 0 mm
22:19 20.7 °C 20.4 °C 1029 hPa Calm     98% 0 mm
22:24 20.6 °C 20.3 °C 1029 hPa Calm     98% 0 mm
22:29 20.6 °C 20.3 °C 1029.3 hPa Calm     98% 0 mm
22:40 20.6 °C 20.3 °C 1029.3 hPa Calm     98% 0 mm
22:45 20.5 °C 20.2 °C 1029.3 hPa Calm     98% 0 mm
22:55 20.4 °C 20.1 °C 1029.3 hPa Calm     98% 0 mm
23:00 20.4 °C 20.1 °C 1029.3 hPa Calm     98% 0 mm
23:05 20.3 °C 20 °C 1029.3 hPa Calm     98% 0 mm
23:10 20.3 °C 20 °C 1029.3 hPa Calm     98% 0 mm
23:20 20.3 °C 20 °C 1029.3 hPa Calm     98% 0 mm
23:25 20.2 °C 19.9 °C 1029.3 hPa Calm     98% 0 mm
23:35 20.1 °C 19.8 °C 1029.7 hPa Calm     98% 0 mm
23:40 20.1 °C 19.8 °C 1029.3 hPa Calm     98% 0 mm
23:45 20.2 °C 19.9 °C 1029.3 hPa Calm     98% 0 mm
23:50 20.2 °C 19.9 °C 1029.3 hPa Calm     98% 0 mm
23:55 20.1 °C 19.8 °C 1029.3 hPa Calm     98% 0 mm
WheeWeather.com
Compliments of Weather Underground - 2.25 mb